sensor_id;sensor_type;location;lat;lon;timestamp;temperature;humidity
2577;DHT22;1298;51.252;6.802;2023-12-20T00:01:40;7.50;99.90
2577;DHT22;1298;51.252;6.802;2023-12-20T00:04:27;7.50;99.90
2577;DHT22;1298;51.252;6.802;2023-12-20T00:07:12;7.50;99.90
2577;DHT22;1298;51.252;6.802;2023-12-20T00:09:58;7.50;99.90
2577;DHT22;1298;51.252;6.802;2023-12-20T00:12:43;7.50;99.90
2577;DHT22;1298;51.252;6.802;2023-12-20T00:15:29;7.50;99.90
2577;DHT22;1298;51.252;6.802;2023-12-20T00:18:14;7.50;99.90
2577;DHT22;1298;51.252;6.802;2023-12-20T00:21:01;7.50;99.90
2577;DHT22;1298;51.252;6.802;2023-12-20T00:23:47;7.50;99.90
2577;DHT22;1298;51.252;6.802;2023-12-20T00:26:32;7.60;99.90
2577;DHT22;1298;51.252;6.802;2023-12-20T00:29:18;7.50;99.90
2577;DHT22;1298;51.252;6.802;2023-12-20T00:32:04;7.50;99.90
2577;DHT22;1298;51.252;6.802;2023-12-20T00:34:50;7.50;99.90
2577;DHT22;1298;51.252;6.802;2023-12-20T00:37:36;7.50;99.90
2577;DHT22;1298;51.252;6.802;2023-12-20T00:40:22;7.50;99.90
2577;DHT22;1298;51.252;6.802;2023-12-20T00:43:07;7.50;99.90
2577;DHT22;1298;51.252;6.802;2023-12-20T00:45:53;7.50;99.90
2577;DHT22;1298;51.252;6.802;2023-12-20T00:48:39;7.50;99.90
2577;DHT22;1298;51.252;6.802;2023-12-20T00:51:26;7.40;99.90
2577;DHT22;1298;51.252;6.802;2023-12-20T00:54:13;7.40;99.90
2577;DHT22;1298;51.252;6.802;2023-12-20T00:56:59;7.50;99.90
2577;DHT22;1298;51.252;6.802;2023-12-20T00:59:45;7.50;99.90
2577;DHT22;1298;51.252;6.802;2023-12-20T01:02:31;7.50;99.90
2577;DHT22;1298;51.252;6.802;2023-12-20T01:05:17;7.50;99.90
2577;DHT22;1298;51.252;6.802;2023-12-20T01:08:03;7.50;99.90
2577;DHT22;1298;51.252;6.802;2023-12-20T01:10:51;7.50;99.90
2577;DHT22;1298;51.252;6.802;2023-12-20T01:13:37;7.50;99.90
2577;DHT22;1298;51.252;6.802;2023-12-20T01:16:22;7.50;99.90
2577;DHT22;1298;51.252;6.802;2023-12-20T01:19:08;7.50;99.90
2577;DHT22;1298;51.252;6.802;2023-12-20T01:21:53;7.50;99.90
2577;DHT22;1298;51.252;6.802;2023-12-20T01:24:39;7.50;99.90
2577;DHT22;1298;51.252;6.802;2023-12-20T01:27:26;7.40;99.90
2577;DHT22;1298;51.252;6.802;2023-12-20T01:30:12;7.40;99.90
2577;DHT22;1298;51.252;6.802;2023-12-20T01:32:59;7.40;99.90
2577;DHT22;1298;51.252;6.802;2023-12-20T01:35:45;7.40;99.90
2577;DHT22;1298;51.252;6.802;2023-12-20T01:38:30;7.40;99.90
2577;DHT22;1298;51.252;6.802;2023-12-20T01:41:16;7.30;99.90
2577;DHT22;1298;51.252;6.802;2023-12-20T01:44:03;7.30;99.90
2577;DHT22;1298;51.252;6.802;2023-12-20T01:46:49;7.30;99.90
2577;DHT22;1298;51.252;6.802;2023-12-20T01:49:35;7.30;99.90
2577;DHT22;1298;51.252;6.802;2023-12-20T01:52:20;7.30;99.90
2577;DHT22;1298;51.252;6.802;2023-12-20T01:55:06;7.20;99.90
2577;DHT22;1298;51.252;6.802;2023-12-20T01:57:57;7.10;99.90
2577;DHT22;1298;51.252;6.802;2023-12-20T02:00:44;7.10;99.90
2577;DHT22;1298;51.252;6.802;2023-12-20T02:03:30;7.10;99.90
2577;DHT22;1298;51.252;6.802;2023-12-20T02:06:16;7.00;99.90
2577;DHT22;1298;51.252;6.802;2023-12-20T02:09:03;6.90;99.90
2577;DHT22;1298;51.252;6.802;2023-12-20T02:11:49;6.90;99.90
2577;DHT22;1298;51.252;6.802;2023-12-20T02:14:35;6.80;99.90
2577;DHT22;1298;51.252;6.802;2023-12-20T02:17:22;6.80;99.90
2577;DHT22;1298;51.252;6.802;2023-12-20T02:20:08;6.70;99.90
2577;DHT22;1298;51.252;6.802;2023-12-20T02:22:55;6.70;99.90
2577;DHT22;1298;51.252;6.802;2023-12-20T02:25:41;6.70;99.90
2577;DHT22;1298;51.252;6.802;2023-12-20T02:28:26;6.70;99.90
2577;DHT22;1298;51.252;6.802;2023-12-20T02:31:12;6.60;99.90
2577;DHT22;1298;51.252;6.802;2023-12-20T02:33:58;6.60;99.90
2577;DHT22;1298;51.252;6.802;2023-12-20T02:36:43;6.60;99.90
2577;DHT22;1298;51.252;6.802;2023-12-20T02:39:30;6.60;99.90
2577;DHT22;1298;51.252;6.802;2023-12-20T02:42:17;6.60;99.90
2577;DHT22;1298;51.252;6.802;2023-12-20T02:45:03;6.70;99.90
2577;DHT22;1298;51.252;6.802;2023-12-20T02:47:49;6.70;99.90
2577;DHT22;1298;51.252;6.802;2023-12-20T02:50:34;6.70;99.90
2577;DHT22;1298;51.252;6.802;2023-12-20T02:53:20;6.70;99.90
2577;DHT22;1298;51.252;6.802;2023-12-20T02:56:07;6.70;99.90
2577;DHT22;1298;51.252;6.802;2023-12-20T02:58:53;6.70;99.90
2577;DHT22;1298;51.252;6.802;2023-12-20T03:01:41;6.70;99.90
2577;DHT22;1298;51.252;6.802;2023-12-20T03:04:27;6.70;99.90
2577;DHT22;1298;51.252;6.802;2023-12-20T03:07:13;6.70;99.90
2577;DHT22;1298;51.252;6.802;2023-12-20T03:09:58;6.70;99.90
2577;DHT22;1298;51.252;6.802;2023-12-20T03:12:45;6.70;99.90
2577;DHT22;1298;51.252;6.802;2023-12-20T03:15:31;6.70;99.90
2577;DHT22;1298;51.252;6.802;2023-12-20T03:18:16;6.70;99.90
2577;DHT22;1298;51.252;6.802;2023-12-20T03:21:02;6.70;99.90
2577;DHT22;1298;51.252;6.802;2023-12-20T03:23:48;6.70;99.90
2577;DHT22;1298;51.252;6.802;2023-12-20T03:26:33;6.70;99.90
2577;DHT22;1298;51.252;6.802;2023-12-20T03:29:20;6.60;99.90
2577;DHT22;1298;51.252;6.802;2023-12-20T03:32:06;6.60;99.90
2577;DHT22;1298;51.252;6.802;2023-12-20T03:34:53;6.60;99.90
2577;DHT22;1298;51.252;6.802;2023-12-20T03:37:38;6.60;99.90
2577;DHT22;1298;51.252;6.802;2023-12-20T03:40:24;6.50;99.90
2577;DHT22;1298;51.252;6.802;2023-12-20T03:43:09;6.50;99.90
2577;DHT22;1298;51.252;6.802;2023-12-20T03:45:56;6.50;99.90
2577;DHT22;1298;51.252;6.802;2023-12-20T03:48:34;6.50;99.90
2577;DHT22;1298;51.252;6.802;2023-12-20T03:51:20;6.50;99.90
2577;DHT22;1298;51.252;6.802;2023-12-20T03:54:06;6.50;99.90
2577;DHT22;1298;51.252;6.802;2023-12-20T03:56:51;6.50;99.90
2577;DHT22;1298;51.252;6.802;2023-12-20T03:59:37;6.40;99.90
2577;DHT22;1298;51.252;6.802;2023-12-20T04:02:24;6.40;99.90
2577;DHT22;1298;51.252;6.802;2023-12-20T04:05:10;6.40;99.90
2577;DHT22;1298;51.252;6.802;2023-12-20T04:07:55;6.40;99.90
2577;DHT22;1298;51.252;6.802;2023-12-20T04:10:41;6.40;99.90
2577;DHT22;1298;51.252;6.802;2023-12-20T04:13:26;6.40;99.90
2577;DHT22;1298;51.252;6.802;2023-12-20T04:16:12;6.30;99.90
2577;DHT22;1298;51.252;6.802;2023-12-20T04:18:59;6.30;99.90
2577;DHT22;1298;51.252;6.802;2023-12-20T04:21:45;6.20;99.90
2577;DHT22;1298;51.252;6.802;2023-12-20T04:24:31;6.20;99.90
2577;DHT22;1298;51.252;6.802;2023-12-20T04:27:16;6.10;99.90
2577;DHT22;1298;51.252;6.802;2023-12-20T04:30:02;6.20;99.90
2577;DHT22;1298;51.252;6.802;2023-12-20T04:32:48;6.10;99.90
2577;DHT22;1298;51.252;6.802;2023-12-20T04:35:35;6.10;99.90
2577;DHT22;1298;51.252;6.802;2023-12-20T04:38:20;6.10;99.90
2577;DHT22;1298;51.252;6.802;2023-12-20T04:41:06;6.10;99.90
2577;DHT22;1298;51.252;6.802;2023-12-20T04:43:51;6.20;99.90
2577;DHT22;1298;51.252;6.802;2023-12-20T04:46:37;6.20;99.90
2577;DHT22;1298;51.252;6.802;2023-12-20T04:49:22;6.10;99.90
2577;DHT22;1298;51.252;6.802;2023-12-20T04:52:09;6.10;99.90
2577;DHT22;1298;51.252;6.802;2023-12-20T04:54:54;6.10;99.90
2577;DHT22;1298;51.252;6.802;2023-12-20T04:57:40;6.20;99.90
2577;DHT22;1298;51.252;6.802;2023-12-20T05:00:27;6.20;99.90
2577;DHT22;1298;51.252;6.802;2023-12-20T05:03:12;6.20;99.90
2577;DHT22;1298;51.252;6.802;2023-12-20T05:05:58;6.20;99.90
2577;DHT22;1298;51.252;6.802;2023-12-20T05:08:45;6.30;99.90
2577;DHT22;1298;51.252;6.802;2023-12-20T05:11:30;6.30;99.90
2577;DHT22;1298;51.252;6.802;2023-12-20T05:14:16;6.30;99.90
2577;DHT22;1298;51.252;6.802;2023-12-20T05:17:02;6.30;99.90
2577;DHT22;1298;51.252;6.802;2023-12-20T05:19:47;6.30;99.90
2577;DHT22;1298;51.252;6.802;2023-12-20T05:22:33;6.30;99.90
2577;DHT22;1298;51.252;6.802;2023-12-20T05:25:20;6.30;99.90
2577;DHT22;1298;51.252;6.802;2023-12-20T05:28:05;6.30;99.90
2577;DHT22;1298;51.252;6.802;2023-12-20T05:30:51;6.20;99.90
2577;DHT22;1298;51.252;6.802;2023-12-20T05:33:36;6.20;99.90
2577;DHT22;1298;51.252;6.802;2023-12-20T05:36:22;6.20;99.90
2577;DHT22;1298;51.252;6.802;2023-12-20T05:39:07;6.20;99.90
2577;DHT22;1298;51.252;6.802;2023-12-20T05:41:54;6.20;99.90
2577;DHT22;1298;51.252;6.802;2023-12-20T05:44:40;6.20;99.90
2577;DHT22;1298;51.252;6.802;2023-12-20T05:47:25;6.20;99.90
2577;DHT22;1298;51.252;6.802;2023-12-20T05:50:11;6.20;99.90
2577;DHT22;1298;51.252;6.802;2023-12-20T05:52:57;6.20;99.90
2577;DHT22;1298;51.252;6.802;2023-12-20T05:55:42;6.20;99.90
2577;DHT22;1298;51.252;6.802;2023-12-20T05:58:29;6.30;99.90
2577;DHT22;1298;51.252;6.802;2023-12-20T06:01:15;6.30;99.90
2577;DHT22;1298;51.252;6.802;2023-12-20T06:04:01;6.30;99.90
2577;DHT22;1298;51.252;6.802;2023-12-20T06:06:47;6.40;99.90
2577;DHT22;1298;51.252;6.802;2023-12-20T06:09:33;6.30;99.90
2577;DHT22;1298;51.252;6.802;2023-12-20T06:12:18;6.30;99.90
2577;DHT22;1298;51.252;6.802;2023-12-20T06:15:06;6.40;99.90
2577;DHT22;1298;51.252;6.802;2023-12-20T06:17:51;6.40;99.90
2577;DHT22;1298;51.252;6.802;2023-12-20T06:20:37;6.40;99.90
2577;DHT22;1298;51.252;6.802;2023-12-20T06:23:23;6.50;99.90
2577;DHT22;1298;51.252;6.802;2023-12-20T06:26:08;6.50;99.90
2577;DHT22;1298;51.252;6.802;2023-12-20T06:28:54;6.50;99.90
2577;DHT22;1298;51.252;6.802;2023-12-20T06:31:41;6.50;99.90
2577;DHT22;1298;51.252;6.802;2023-12-20T06:34:26;6.50;99.90
2577;DHT22;1298;51.252;6.802;2023-12-20T06:37:12;6.50;99.90
2577;DHT22;1298;51.252;6.802;2023-12-20T06:39:59;6.50;99.90
2577;DHT22;1298;51.252;6.802;2023-12-20T06:42:45;6.60;99.90
2577;DHT22;1298;51.252;6.802;2023-12-20T06:45:31;6.60;99.90
2577;DHT22;1298;51.252;6.802;2023-12-20T06:48:18;6.60;99.90
2577;DHT22;1298;51.252;6.802;2023-12-20T06:51:06;6.60;99.90
2577;DHT22;1298;51.252;6.802;2023-12-20T06:53:51;6.60;99.90
2577;DHT22;1298;51.252;6.802;2023-12-20T06:56:37;6.70;99.90
2577;DHT22;1298;51.252;6.802;2023-12-20T06:59:22;6.60;99.90
2577;DHT22;1298;51.252;6.802;2023-12-20T07:02:08;6.60;99.90
2577;DHT22;1298;51.252;6.802;2023-12-20T07:04:55;6.70;99.90
2577;DHT22;1298;51.252;6.802;2023-12-20T07:07:41;6.70;99.90
2577;DHT22;1298;51.252;6.802;2023-12-20T07:10:27;6.70;99.90
2577;DHT22;1298;51.252;6.802;2023-12-20T07:13:13;6.70;99.90
2577;DHT22;1298;51.252;6.802;2023-12-20T07:15:58;6.70;99.90
2577;DHT22;1298;51.252;6.802;2023-12-20T07:18:44;6.70;99.90
2577;DHT22;1298;51.252;6.802;2023-12-20T07:21:31;6.70;99.90
2577;DHT22;1298;51.252;6.802;2023-12-20T07:24:16;6.70;99.90
2577;DHT22;1298;51.252;6.802;2023-12-20T07:27:03;6.70;99.90
2577;DHT22;1298;51.252;6.802;2023-12-20T07:29:48;6.80;99.90
2577;DHT22;1298;51.252;6.802;2023-12-20T07:32:34;6.80;99.90
2577;DHT22;1298;51.252;6.802;2023-12-20T07:35:19;6.80;99.90
2577;DHT22;1298;51.252;6.802;2023-12-20T07:38:06;6.90;99.90
2577;DHT22;1298;51.252;6.802;2023-12-20T07:40:51;6.90;99.90
2577;DHT22;1298;51.252;6.802;2023-12-20T07:43:37;6.90;99.90
2577;DHT22;1298;51.252;6.802;2023-12-20T07:46:22;6.90;99.90
2577;DHT22;1298;51.252;6.802;2023-12-20T07:49:08;6.90;99.90
2577;DHT22;1298;51.252;6.802;2023-12-20T07:51:54;6.90;99.90
2577;DHT22;1298;51.252;6.802;2023-12-20T07:54:50;6.90;99.90
2577;DHT22;1298;51.252;6.802;2023-12-20T07:57:36;7.00;99.90
2577;DHT22;1298;51.252;6.802;2023-12-20T08:00:22;7.00;99.90
2577;DHT22;1298;51.252;6.802;2023-12-20T08:03:07;7.00;99.90
2577;DHT22;1298;51.252;6.802;2023-12-20T08:05:53;7.00;99.90
2577;DHT22;1298;51.252;6.802;2023-12-20T08:08:38;7.00;99.90
2577;DHT22;1298;51.252;6.802;2023-12-20T08:11:25;7.00;99.90
2577;DHT22;1298;51.252;6.802;2023-12-20T08:14:11;7.00;99.90
2577;DHT22;1298;51.252;6.802;2023-12-20T08:16:57;7.00;99.90
2577;DHT22;1298;51.252;6.802;2023-12-20T08:19:42;7.00;99.90
2577;DHT22;1298;51.252;6.802;2023-12-20T08:22:28;7.00;99.90
2577;DHT22;1298;51.252;6.802;2023-12-20T08:25:13;7.10;99.90
2577;DHT22;1298;51.252;6.802;2023-12-20T08:28:01;7.10;99.90
2577;DHT22;1298;51.252;6.802;2023-12-20T08:30:48;7.10;99.90
2577;DHT22;1298;51.252;6.802;2023-12-20T08:33:37;7.10;99.90
2577;DHT22;1298;51.252;6.802;2023-12-20T08:36:23;7.10;99.90
2577;DHT22;1298;51.252;6.802;2023-12-20T08:39:09;7.10;99.90
2577;DHT22;1298;51.252;6.802;2023-12-20T08:41:54;7.10;99.90
2577;DHT22;1298;51.252;6.802;2023-12-20T08:44:41;7.10;99.90
2577;DHT22;1298;51.252;6.802;2023-12-20T08:47:27;7.10;99.90
2577;DHT22;1298;51.252;6.802;2023-12-20T08:50:12;7.00;99.90
2577;DHT22;1298;51.252;6.802;2023-12-20T08:52:59;7.00;99.90
2577;DHT22;1298;51.252;6.802;2023-12-20T08:55:44;7.00;99.90
2577;DHT22;1298;51.252;6.802;2023-12-20T08:58:30;7.10;99.90
2577;DHT22;1298;51.252;6.802;2023-12-20T09:01:17;7.00;99.90
2577;DHT22;1298;51.252;6.802;2023-12-20T09:04:03;7.00;99.90
2577;DHT22;1298;51.252;6.802;2023-12-20T09:06:50;7.00;99.90
2577;DHT22;1298;51.252;6.802;2023-12-20T09:09:36;7.00;99.90
2577;DHT22;1298;51.252;6.802;2023-12-20T09:12:22;7.10;99.90
2577;DHT22;1298;51.252;6.802;2023-12-20T09:15:08;7.10;99.90
2577;DHT22;1298;51.252;6.802;2023-12-20T09:17:54;7.00;99.90
2577;DHT22;1298;51.252;6.802;2023-12-20T09:20:40;7.10;99.90
2577;DHT22;1298;51.252;6.802;2023-12-20T09:23:26;7.00;99.90
2577;DHT22;1298;51.252;6.802;2023-12-20T09:26:11;7.10;99.90
2577;DHT22;1298;51.252;6.802;2023-12-20T09:28:57;7.10;99.90
2577;DHT22;1298;51.252;6.802;2023-12-20T09:31:42;7.10;99.90
2577;DHT22;1298;51.252;6.802;2023-12-20T09:34:31;7.10;99.90
2577;DHT22;1298;51.252;6.802;2023-12-20T09:37:17;7.10;99.90
2577;DHT22;1298;51.252;6.802;2023-12-20T09:40:03;7.10;99.90
2577;DHT22;1298;51.252;6.802;2023-12-20T09:42:56;7.10;99.90
2577;DHT22;1298;51.252;6.802;2023-12-20T09:45:46;7.10;99.90
2577;DHT22;1298;51.252;6.802;2023-12-20T09:48:31;7.10;99.90
2577;DHT22;1298;51.252;6.802;2023-12-20T09:51:20;7.10;99.90
2577;DHT22;1298;51.252;6.802;2023-12-20T09:54:06;7.00;99.90
2577;DHT22;1298;51.252;6.802;2023-12-20T09:56:52;7.10;99.90
2577;DHT22;1298;51.252;6.802;2023-12-20T09:59:37;7.10;99.90
2577;DHT22;1298;51.252;6.802;2023-12-20T10:02:25;7.10;99.90
2577;DHT22;1298;51.252;6.802;2023-12-20T10:05:16;7.10;99.90
2577;DHT22;1298;51.252;6.802;2023-12-20T10:08:05;7.10;99.90
2577;DHT22;1298;51.252;6.802;2023-12-20T10:10:51;7.10;99.90
2577;DHT22;1298;51.252;6.802;2023-12-20T10:13:39;7.10;99.90
2577;DHT22;1298;51.252;6.802;2023-12-20T10:16:25;7.10;99.90
2577;DHT22;1298;51.252;6.802;2023-12-20T10:19:10;7.20;99.90
2577;DHT22;1298;51.252;6.802;2023-12-20T10:21:56;7.20;99.90
2577;DHT22;1298;51.252;6.802;2023-12-20T10:24:45;7.20;99.90
2577;DHT22;1298;51.252;6.802;2023-12-20T10:27:31;7.20;99.90
2577;DHT22;1298;51.252;6.802;2023-12-20T10:30:17;7.20;99.90
2577;DHT22;1298;51.252;6.802;2023-12-20T10:33:04;7.20;99.90
2577;DHT22;1298;51.252;6.802;2023-12-20T10:35:50;7.10;99.90
2577;DHT22;1298;51.252;6.802;2023-12-20T10:38:37;7.10;99.90
2577;DHT22;1298;51.252;6.802;2023-12-20T10:41:27;7.20;99.90
2577;DHT22;1298;51.252;6.802;2023-12-20T10:44:13;7.20;99.90
2577;DHT22;1298;51.252;6.802;2023-12-20T10:46:59;7.20;99.90
2577;DHT22;1298;51.252;6.802;2023-12-20T10:49:45;7.20;99.90
2577;DHT22;1298;51.252;6.802;2023-12-20T10:52:32;7.20;99.90
2577;DHT22;1298;51.252;6.802;2023-12-20T10:55:17;7.30;99.90
2577;DHT22;1298;51.252;6.802;2023-12-20T10:58:08;7.40;99.90
2577;DHT22;1298;51.252;6.802;2023-12-20T11:01:00;7.30;99.90
2577;DHT22;1298;51.252;6.802;2023-12-20T11:03:49;7.40;99.90
2577;DHT22;1298;51.252;6.802;2023-12-20T11:06:40;7.30;99.90
2577;DHT22;1298;51.252;6.802;2023-12-20T11:09:33;7.30;99.90
2577;DHT22;1298;51.252;6.802;2023-12-20T11:12:28;7.30;99.90
2577;DHT22;1298;51.252;6.802;2023-12-20T11:15:18;7.40;99.90
2577;DHT22;1298;51.252;6.802;2023-12-20T11:18:05;7.40;99.90
2577;DHT22;1298;51.252;6.802;2023-12-20T11:20:51;7.40;99.90
2577;DHT22;1298;51.252;6.802;2023-12-20T11:23:36;7.50;99.90
2577;DHT22;1298;51.252;6.802;2023-12-20T11:26:26;7.40;99.90
2577;DHT22;1298;51.252;6.802;2023-12-20T11:29:34;7.40;99.90
2577;DHT22;1298;51.252;6.802;2023-12-20T11:32:29;7.40;99.90
2577;DHT22;1298;51.252;6.802;2023-12-20T11:35:19;7.30;99.90
2577;DHT22;1298;51.252;6.802;2023-12-20T11:38:06;7.30;99.90
2577;DHT22;1298;51.252;6.802;2023-12-20T11:40:54;7.30;99.90
2577;DHT22;1298;51.252;6.802;2023-12-20T11:43:40;7.30;99.90
2577;DHT22;1298;51.252;6.802;2023-12-20T11:46:25;7.40;99.90
2577;DHT22;1298;51.252;6.802;2023-12-20T11:49:12;7.40;99.90
2577;DHT22;1298;51.252;6.802;2023-12-20T11:51:58;7.40;99.90
2577;DHT22;1298;51.252;6.802;2023-12-20T11:54:44;7.40;99.90
2577;DHT22;1298;51.252;6.802;2023-12-20T11:57:29;7.40;99.90
2577;DHT22;1298;51.252;6.802;2023-12-20T12:00:16;7.40;99.90
2577;DHT22;1298;51.252;6.802;2023-12-20T12:03:01;7.40;99.90
2577;DHT22;1298;51.252;6.802;2023-12-20T12:05:49;7.50;99.90
2577;DHT22;1298;51.252;6.802;2023-12-20T12:08:35;7.50;99.90
2577;DHT22;1298;51.252;6.802;2023-12-20T12:11:21;7.40;99.90
2577;DHT22;1298;51.252;6.802;2023-12-20T12:14:07;7.40;99.90
2577;DHT22;1298;51.252;6.802;2023-12-20T12:16:53;7.40;99.90
2577;DHT22;1298;51.252;6.802;2023-12-20T12:19:39;7.40;99.90
2577;DHT22;1298;51.252;6.802;2023-12-20T12:22:25;7.40;99.90
2577;DHT22;1298;51.252;6.802;2023-12-20T12:25:12;7.50;99.90
2577;DHT22;1298;51.252;6.802;2023-12-20T12:27:58;7.50;99.90
2577;DHT22;1298;51.252;6.802;2023-12-20T12:30:56;7.40;99.90
2577;DHT22;1298;51.252;6.802;2023-12-20T12:33:41;7.40;99.90
2577;DHT22;1298;51.252;6.802;2023-12-20T12:36:28;7.40;99.90
2577;DHT22;1298;51.252;6.802;2023-12-20T12:39:15;7.40;99.90
2577;DHT22;1298;51.252;6.802;2023-12-20T12:42:00;7.40;99.90
2577;DHT22;1298;51.252;6.802;2023-12-20T12:44:46;7.40;99.90
2577;DHT22;1298;51.252;6.802;2023-12-20T12:47:31;7.40;99.90
2577;DHT22;1298;51.252;6.802;2023-12-20T12:50:17;7.40;99.90
2577;DHT22;1298;51.252;6.802;2023-12-20T12:53:03;7.40;99.90
2577;DHT22;1298;51.252;6.802;2023-12-20T12:55:50;7.40;99.90
2577;DHT22;1298;51.252;6.802;2023-12-20T12:58:35;7.30;99.90
2577;DHT22;1298;51.252;6.802;2023-12-20T13:01:21;7.20;99.90
2577;DHT22;1298;51.252;6.802;2023-12-20T13:04:07;7.20;99.90
2577;DHT22;1298;51.252;6.802;2023-12-20T13:06:54;7.20;99.90
2577;DHT22;1298;51.252;6.802;2023-12-20T13:09:41;7.20;99.90
2577;DHT22;1298;51.252;6.802;2023-12-20T13:12:28;7.20;99.90
2577;DHT22;1298;51.252;6.802;2023-12-20T13:15:13;7.10;99.90
2577;DHT22;1298;51.252;6.802;2023-12-20T13:17:59;7.20;99.90
2577;DHT22;1298;51.252;6.802;2023-12-20T13:20:45;7.10;99.90
2577;DHT22;1298;51.252;6.802;2023-12-20T13:23:31;7.20;99.90
2577;DHT22;1298;51.252;6.802;2023-12-20T13:26:17;7.20;99.90
2577;DHT22;1298;51.252;6.802;2023-12-20T13:29:04;7.20;99.90
2577;DHT22;1298;51.252;6.802;2023-12-20T13:31:49;7.20;99.90
2577;DHT22;1298;51.252;6.802;2023-12-20T13:34:35;7.20;99.90
2577;DHT22;1298;51.252;6.802;2023-12-20T13:37:21;7.30;99.90
2577;DHT22;1298;51.252;6.802;2023-12-20T13:40:07;7.30;99.90
2577;DHT22;1298;51.252;6.802;2023-12-20T13:42:53;7.20;99.90
2577;DHT22;1298;51.252;6.802;2023-12-20T13:45:40;7.20;99.90
2577;DHT22;1298;51.252;6.802;2023-12-20T13:48:26;7.20;99.90
2577;DHT22;1298;51.252;6.802;2023-12-20T13:51:11;7.10;99.90
2577;DHT22;1298;51.252;6.802;2023-12-20T13:53:56;7.10;99.90
2577;DHT22;1298;51.252;6.802;2023-12-20T13:56:42;7.10;99.90
2577;DHT22;1298;51.252;6.802;2023-12-20T13:59:28;7.10;99.90
2577;DHT22;1298;51.252;6.802;2023-12-20T14:02:15;7.10;99.90
2577;DHT22;1298;51.252;6.802;2023-12-20T14:05:01;7.10;99.90
2577;DHT22;1298;51.252;6.802;2023-12-20T14:07:46;7.10;99.90
2577;DHT22;1298;51.252;6.802;2023-12-20T14:10:32;7.20;99.90
2577;DHT22;1298;51.252;6.802;2023-12-20T14:13:17;7.20;99.90
2577;DHT22;1298;51.252;6.802;2023-12-20T14:16:03;7.20;99.90
2577;DHT22;1298;51.252;6.802;2023-12-20T14:18:50;7.20;99.90
2577;DHT22;1298;51.252;6.802;2023-12-20T14:21:36;7.30;99.90
2577;DHT22;1298;51.252;6.802;2023-12-20T14:24:22;7.30;99.90
2577;DHT22;1298;51.252;6.802;2023-12-20T14:27:07;7.30;99.90
2577;DHT22;1298;51.252;6.802;2023-12-20T14:29:53;7.40;99.90
2577;DHT22;1298;51.252;6.802;2023-12-20T14:32:38;7.40;99.90
2577;DHT22;1298;51.252;6.802;2023-12-20T14:35:25;7.50;99.90
2577;DHT22;1298;51.252;6.802;2023-12-20T14:38:11;7.50;99.90
2577;DHT22;1298;51.252;6.802;2023-12-20T14:40:58;7.50;99.90
2577;DHT22;1298;51.252;6.802;2023-12-20T14:43:43;7.60;99.90
2577;DHT22;1298;51.252;6.802;2023-12-20T14:46:29;7.60;99.90
2577;DHT22;1298;51.252;6.802;2023-12-20T14:49:15;7.60;99.90
2577;DHT22;1298;51.252;6.802;2023-12-20T14:52:02;7.60;99.90
2577;DHT22;1298;51.252;6.802;2023-12-20T14:54:48;7.60;99.90
2577;DHT22;1298;51.252;6.802;2023-12-20T14:57:33;7.70;99.90
2577;DHT22;1298;51.252;6.802;2023-12-20T15:00:19;7.70;99.90
2577;DHT22;1298;51.252;6.802;2023-12-20T15:03:05;7.70;99.90
2577;DHT22;1298;51.252;6.802;2023-12-20T15:05:51;7.80;99.90
2577;DHT22;1298;51.252;6.802;2023-12-20T15:08:37;7.70;99.90
2577;DHT22;1298;51.252;6.802;2023-12-20T15:11:23;7.70;99.90
2577;DHT22;1298;51.252;6.802;2023-12-20T15:14:08;7.80;99.90
2577;DHT22;1298;51.252;6.802;2023-12-20T15:16:54;7.80;99.90
2577;DHT22;1298;51.252;6.802;2023-12-20T15:19:41;7.80;99.90
2577;DHT22;1298;51.252;6.802;2023-12-20T15:22:26;7.80;99.90
2577;DHT22;1298;51.252;6.802;2023-12-20T15:25:13;7.90;99.90
2577;DHT22;1298;51.252;6.802;2023-12-20T15:28:04;7.90;99.90
2577;DHT22;1298;51.252;6.802;2023-12-20T15:30:49;7.90;99.90
2577;DHT22;1298;51.252;6.802;2023-12-20T15:33:35;7.90;99.90
2577;DHT22;1298;51.252;6.802;2023-12-20T15:36:21;7.90;99.90
2577;DHT22;1298;51.252;6.802;2023-12-20T15:39:06;7.90;99.90
2577;DHT22;1298;51.252;6.802;2023-12-20T15:41:54;7.90;99.90
2577;DHT22;1298;51.252;6.802;2023-12-20T15:44:40;7.90;99.90
2577;DHT22;1298;51.252;6.802;2023-12-20T15:47:25;7.90;99.90
2577;DHT22;1298;51.252;6.802;2023-12-20T15:50:11;7.90;99.90
2577;DHT22;1298;51.252;6.802;2023-12-20T15:52:57;7.90;99.90
2577;DHT22;1298;51.252;6.802;2023-12-20T15:55:42;7.90;99.90
2577;DHT22;1298;51.252;6.802;2023-12-20T15:58:30;7.90;99.90
2577;DHT22;1298;51.252;6.802;2023-12-20T16:01:15;7.90;99.90
2577;DHT22;1298;51.252;6.802;2023-12-20T16:04:01;7.90;99.90
2577;DHT22;1298;51.252;6.802;2023-12-20T16:06:47;7.90;99.90
2577;DHT22;1298;51.252;6.802;2023-12-20T16:09:32;7.90;99.90
2577;DHT22;1298;51.252;6.802;2023-12-20T16:12:18;8.00;99.90
2577;DHT22;1298;51.252;6.802;2023-12-20T16:15:06;8.00;99.90
2577;DHT22;1298;51.252;6.802;2023-12-20T16:17:52;8.00;99.90
2577;DHT22;1298;51.252;6.802;2023-12-20T16:20:38;8.00;99.90
2577;DHT22;1298;51.252;6.802;2023-12-20T16:23:23;8.00;99.90
2577;DHT22;1298;51.252;6.802;2023-12-20T16:26:12;8.10;99.90
2577;DHT22;1298;51.252;6.802;2023-12-20T16:28:58;8.00;99.90
2577;DHT22;1298;51.252;6.802;2023-12-20T16:31:45;8.00;99.90
2577;DHT22;1298;51.252;6.802;2023-12-20T16:34:30;8.00;99.90
2577;DHT22;1298;51.252;6.802;2023-12-20T16:37:16;8.00;99.90
2577;DHT22;1298;51.252;6.802;2023-12-20T16:40:01;8.10;99.90
2577;DHT22;1298;51.252;6.802;2023-12-20T16:42:48;8.10;99.90
2577;DHT22;1298;51.252;6.802;2023-12-20T16:45:33;8.00;99.90
2577;DHT22;1298;51.252;6.802;2023-12-20T16:48:20;8.00;99.90
2577;DHT22;1298;51.252;6.802;2023-12-20T16:51:05;8.00;99.90
2577;DHT22;1298;51.252;6.802;2023-12-20T16:53:51;8.00;99.90
2577;DHT22;1298;51.252;6.802;2023-12-20T16:56:37;8.10;99.90
2577;DHT22;1298;51.252;6.802;2023-12-20T16:59:22;8.10;99.90
2577;DHT22;1298;51.252;6.802;2023-12-20T17:02:08;8.00;99.90
2577;DHT22;1298;51.252;6.802;2023-12-20T17:04:55;8.10;99.90
2577;DHT22;1298;51.252;6.802;2023-12-20T17:07:40;8.10;99.90
2577;DHT22;1298;51.252;6.802;2023-12-20T17:10:26;8.10;99.90
2577;DHT22;1298;51.252;6.802;2023-12-20T17:13:11;8.10;99.90
2577;DHT22;1298;51.252;6.802;2023-12-20T17:15:57;8.10;99.90
2577;DHT22;1298;51.252;6.802;2023-12-20T17:18:43;8.10;99.90
2577;DHT22;1298;51.252;6.802;2023-12-20T17:21:34;8.10;99.90
2577;DHT22;1298;51.252;6.802;2023-12-20T17:24:19;8.10;99.90
2577;DHT22;1298;51.252;6.802;2023-12-20T17:27:05;8.10;99.90
2577;DHT22;1298;51.252;6.802;2023-12-20T17:29:50;8.10;99.90
2577;DHT22;1298;51.252;6.802;2023-12-20T17:32:36;8.10;99.90
2577;DHT22;1298;51.252;6.802;2023-12-20T17:35:22;8.10;99.90
2577;DHT22;1298;51.252;6.802;2023-12-20T17:38:09;8.10;99.90
2577;DHT22;1298;51.252;6.802;2023-12-20T17:40:54;8.20;99.90
2577;DHT22;1298;51.252;6.802;2023-12-20T17:43:40;8.20;99.90
2577;DHT22;1298;51.252;6.802;2023-12-20T17:46:28;8.20;99.90
2577;DHT22;1298;51.252;6.802;2023-12-20T17:49:15;8.20;99.90
2577;DHT22;1298;51.252;6.802;2023-12-20T17:52:03;8.20;99.90
2577;DHT22;1298;51.252;6.802;2023-12-20T17:54:51;8.20;99.90
2577;DHT22;1298;51.252;6.802;2023-12-20T17:57:37;8.20;99.90
2577;DHT22;1298;51.252;6.802;2023-12-20T18:00:26;8.20;99.90
2577;DHT22;1298;51.252;6.802;2023-12-20T18:03:13;8.20;99.90
2577;DHT22;1298;51.252;6.802;2023-12-20T18:05:58;8.30;99.90
2577;DHT22;1298;51.252;6.802;2023-12-20T18:08:44;8.30;99.90
2577;DHT22;1298;51.252;6.802;2023-12-20T18:11:30;8.30;99.90
2577;DHT22;1298;51.252;6.802;2023-12-20T18:14:16;8.30;99.90
2577;DHT22;1298;51.252;6.802;2023-12-20T18:17:02;8.30;99.90
2577;DHT22;1298;51.252;6.802;2023-12-20T18:19:47;8.30;99.90
2577;DHT22;1298;51.252;6.802;2023-12-20T18:22:33;8.40;99.90